sensor_id;sensor_type;location;lat;lon;timestamp;P1;durP1;ratioP1;P2;durP2;ratioP2
5032;SDS011;2535;49.888;8.942;2023-05-13T00:00:45;2266.67;;;999.90;;
5032;SDS011;2535;49.888;8.942;2023-05-13T00:03:11;2266.67;;;999.90;;
5032;SDS011;2535;49.888;8.942;2023-05-13T00:05:37;2266.67;;;999.90;;
5032;SDS011;2535;49.888;8.942;2023-05-13T00:08:04;2266.67;;;999.90;;
5032;SDS011;2535;49.888;8.942;2023-05-13T00:10:33;2266.67;;;999.90;;
5032;SDS011;2535;49.888;8.942;2023-05-13T00:12:59;2266.67;;;999.90;;
5032;SDS011;2535;49.888;8.942;2023-05-13T00:15:25;2266.67;;;999.90;;
5032;SDS011;2535;49.888;8.942;2023-05-13T00:17:51;2266.67;;;999.90;;
5032;SDS011;2535;49.888;8.942;2023-05-13T00:20:17;2266.67;;;999.90;;
5032;SDS011;2535;49.888;8.942;2023-05-13T00:22:43;2266.67;;;999.90;;
5032;SDS011;2535;49.888;8.942;2023-05-13T00:25:09;2266.67;;;999.90;;
5032;SDS011;2535;49.888;8.942;2023-05-13T00:27:35;2266.67;;;999.90;;
5032;SDS011;2535;49.888;8.942;2023-05-13T00:30:01;2266.67;;;999.90;;
5032;SDS011;2535;49.888;8.942;2023-05-13T00:32:29;2266.67;;;999.90;;
5032;SDS011;2535;49.888;8.942;2023-05-13T00:34:55;2266.67;;;999.90;;
5032;SDS011;2535;49.888;8.942;2023-05-13T00:37:21;2266.67;;;999.90;;
5032;SDS011;2535;49.888;8.942;2023-05-13T00:39:47;2266.67;;;999.90;;
5032;SDS011;2535;49.888;8.942;2023-05-13T00:42:13;2266.67;;;999.90;;
5032;SDS011;2535;49.888;8.942;2023-05-13T00:44:39;2266.67;;;999.90;;
5032;SDS011;2535;49.888;8.942;2023-05-13T00:47:05;2266.67;;;999.90;;
5032;SDS011;2535;49.888;8.942;2023-05-13T00:49:31;2266.67;;;999.90;;
5032;SDS011;2535;49.888;8.942;2023-05-13T00:51:57;2266.67;;;999.90;;
5032;SDS011;2535;49.888;8.942;2023-05-13T00:54:23;2266.67;;;999.90;;
5032;SDS011;2535;49.888;8.942;2023-05-13T00:56:49;2266.67;;;999.90;;
5032;SDS011;2535;49.888;8.942;2023-05-13T00:59:18;2266.67;;;999.90;;
5032;SDS011;2535;49.888;8.942;2023-05-13T01:01:47;2266.67;;;999.90;;
5032;SDS011;2535;49.888;8.942;2023-05-13T01:04:30;2266.67;;;999.90;;
5032;SDS011;2535;49.888;8.942;2023-05-13T01:09:44;2266.67;;;999.90;;
5032;SDS011;2535;49.888;8.942;2023-05-13T01:12:12;2266.67;;;999.90;;
5032;SDS011;2535;49.888;8.942;2023-05-13T01:14:43;2266.67;;;999.90;;
5032;SDS011;2535;49.888;8.942;2023-05-13T01:17:13;2266.67;;;999.90;;
5032;SDS011;2535;49.888;8.942;2023-05-13T01:22:06;2266.67;;;999.90;;
5032;SDS011;2535;49.888;8.942;2023-05-13T01:24:32;2266.67;;;999.90;;
5032;SDS011;2535;49.888;8.942;2023-05-13T01:26:58;2266.67;;;999.90;;
5032;SDS011;2535;49.888;8.942;2023-05-13T01:29:24;2266.67;;;999.90;;
5032;SDS011;2535;49.888;8.942;2023-05-13T01:31:50;2266.67;;;999.90;;
5032;SDS011;2535;49.888;8.942;2023-05-13T01:34:17;2266.67;;;999.90;;
5032;SDS011;2535;49.888;8.942;2023-05-13T01:36:44;2266.67;;;999.90;;
5032;SDS011;2535;49.888;8.942;2023-05-13T01:39:10;2266.67;;;999.90;;
5032;SDS011;2535;49.888;8.942;2023-05-13T01:41:36;2266.67;;;999.90;;
5032;SDS011;2535;49.888;8.942;2023-05-13T01:44:02;2266.67;;;999.90;;
5032;SDS011;2535;49.888;8.942;2023-05-13T01:46:28;2266.67;;;999.90;;
5032;SDS011;2535;49.888;8.942;2023-05-13T01:48:54;2266.67;;;999.90;;
5032;SDS011;2535;49.888;8.942;2023-05-13T01:51:20;2266.67;;;999.90;;
5032;SDS011;2535;49.888;8.942;2023-05-13T01:53:46;2266.67;;;999.90;;
5032;SDS011;2535;49.888;8.942;2023-05-13T01:56:12;2266.67;;;999.90;;
5032;SDS011;2535;49.888;8.942;2023-05-13T01:58:38;2266.67;;;999.90;;
5032;SDS011;2535;49.888;8.942;2023-05-13T02:01:04;2266.67;;;999.90;;
5032;SDS011;2535;49.888;8.942;2023-05-13T02:03:30;2266.67;;;999.90;;
5032;SDS011;2535;49.888;8.942;2023-05-13T02:05:56;2266.67;;;999.90;;
5032;SDS011;2535;49.888;8.942;2023-05-13T02:08:21;2266.67;;;999.90;;
5032;SDS011;2535;49.888;8.942;2023-05-13T02:10:58;2266.67;;;999.90;;
5032;SDS011;2535;49.888;8.942;2023-05-13T02:13:25;2266.67;;;999.90;;
5032;SDS011;2535;49.888;8.942;2023-05-13T02:15:51;2266.67;;;999.90;;
5032;SDS011;2535;49.888;8.942;2023-05-13T02:18:17;2266.67;;;999.90;;
5032;SDS011;2535;49.888;8.942;2023-05-13T02:20:43;2266.67;;;999.90;;
5032;SDS011;2535;49.888;8.942;2023-05-13T02:23:09;2266.67;;;999.90;;
5032;SDS011;2535;49.888;8.942;2023-05-13T02:25:35;2266.67;;;999.90;;
5032;SDS011;2535;49.888;8.942;2023-05-13T02:28:02;2266.67;;;999.90;;
5032;SDS011;2535;49.888;8.942;2023-05-13T02:30:28;2266.67;;;999.90;;
5032;SDS011;2535;49.888;8.942;2023-05-13T02:32:54;2266.67;;;999.90;;
5032;SDS011;2535;49.888;8.942;2023-05-13T02:35:20;2266.67;;;999.90;;
5032;SDS011;2535;49.888;8.942;2023-05-13T02:37:46;2266.67;;;999.90;;
5032;SDS011;2535;49.888;8.942;2023-05-13T02:40:13;2266.67;;;999.90;;
5032;SDS011;2535;49.888;8.942;2023-05-13T02:42:39;2266.67;;;999.90;;
5032;SDS011;2535;49.888;8.942;2023-05-13T02:45:05;2266.67;;;999.90;;
5032;SDS011;2535;49.888;8.942;2023-05-13T02:47:31;2266.67;;;999.90;;
5032;SDS011;2535;49.888;8.942;2023-05-13T02:49:57;2266.67;;;999.90;;
5032;SDS011;2535;49.888;8.942;2023-05-13T02:52:23;2266.67;;;999.90;;
5032;SDS011;2535;49.888;8.942;2023-05-13T02:54:49;2266.67;;;999.90;;
5032;SDS011;2535;49.888;8.942;2023-05-13T02:57:15;2266.67;;;999.90;;
5032;SDS011;2535;49.888;8.942;2023-05-13T02:59:40;2266.67;;;999.90;;
5032;SDS011;2535;49.888;8.942;2023-05-13T03:02:06;2266.67;;;999.90;;
5032;SDS011;2535;49.888;8.942;2023-05-13T03:04:32;2266.67;;;999.90;;
5032;SDS011;2535;49.888;8.942;2023-05-13T03:06:58;2266.67;;;999.90;;
5032;SDS011;2535;49.888;8.942;2023-05-13T03:09:24;2266.67;;;999.90;;
5032;SDS011;2535;49.888;8.942;2023-05-13T03:11:50;2266.67;;;999.90;;
5032;SDS011;2535;49.888;8.942;2023-05-13T03:14:16;2266.67;;;999.90;;
5032;SDS011;2535;49.888;8.942;2023-05-13T03:16:42;2266.67;;;999.90;;
5032;SDS011;2535;49.888;8.942;2023-05-13T03:19:08;2266.67;;;999.90;;
5032;SDS011;2535;49.888;8.942;2023-05-13T03:21:34;2266.67;;;999.90;;
5032;SDS011;2535;49.888;8.942;2023-05-13T03:24:00;2266.67;;;999.90;;
5032;SDS011;2535;49.888;8.942;2023-05-13T03:26:26;2266.67;;;999.90;;
5032;SDS011;2535;49.888;8.942;2023-05-13T03:28:52;2266.67;;;999.90;;
5032;SDS011;2535;49.888;8.942;2023-05-13T03:31:18;2266.67;;;999.90;;
5032;SDS011;2535;49.888;8.942;2023-05-13T03:33:44;2266.67;;;999.90;;
5032;SDS011;2535;49.888;8.942;2023-05-13T03:36:10;2266.67;;;999.90;;
5032;SDS011;2535;49.888;8.942;2023-05-13T03:38:36;2266.67;;;999.90;;
5032;SDS011;2535;49.888;8.942;2023-05-13T03:41:02;2266.67;;;999.90;;
5032;SDS011;2535;49.888;8.942;2023-05-13T03:43:28;2266.67;;;999.90;;
5032;SDS011;2535;49.888;8.942;2023-05-13T03:45:53;2266.67;;;999.90;;
5032;SDS011;2535;49.888;8.942;2023-05-13T03:48:19;2266.67;;;999.90;;
5032;SDS011;2535;49.888;8.942;2023-05-13T03:50:45;2266.67;;;999.90;;
5032;SDS011;2535;49.888;8.942;2023-05-13T03:53:11;2266.67;;;999.90;;
5032;SDS011;2535;49.888;8.942;2023-05-13T03:55:37;2266.67;;;999.90;;
5032;SDS011;2535;49.888;8.942;2023-05-13T03:58:09;2266.67;;;999.90;;
5032;SDS011;2535;49.888;8.942;2023-05-13T04:00:37;2266.67;;;999.90;;
5032;SDS011;2535;49.888;8.942;2023-05-13T04:03:03;2266.67;;;999.90;;
5032;SDS011;2535;49.888;8.942;2023-05-13T04:05:29;2266.67;;;999.90;;
5032;SDS011;2535;49.888;8.942;2023-05-13T04:07:55;2266.67;;;999.90;;
5032;SDS011;2535;49.888;8.942;2023-05-13T04:10:21;2266.67;;;999.90;;
5032;SDS011;2535;49.888;8.942;2023-05-13T04:12:47;2266.67;;;999.90;;
5032;SDS011;2535;49.888;8.942;2023-05-13T04:15:13;2266.67;;;999.90;;
5032;SDS011;2535;49.888;8.942;2023-05-13T04:17:39;2266.67;;;999.90;;
5032;SDS011;2535;49.888;8.942;2023-05-13T04:20:05;2266.67;;;999.90;;
5032;SDS011;2535;49.888;8.942;2023-05-13T04:22:31;2266.67;;;999.90;;
5032;SDS011;2535;49.888;8.942;2023-05-13T04:24:57;2266.67;;;999.90;;
5032;SDS011;2535;49.888;8.942;2023-05-13T04:27:23;2266.67;;;999.90;;
5032;SDS011;2535;49.888;8.942;2023-05-13T04:29:49;2266.67;;;999.90;;
5032;SDS011;2535;49.888;8.942;2023-05-13T04:32:15;2266.67;;;999.90;;
5032;SDS011;2535;49.888;8.942;2023-05-13T04:34:46;2266.67;;;999.90;;
5032;SDS011;2535;49.888;8.942;2023-05-13T04:37:11;2266.67;;;999.90;;
5032;SDS011;2535;49.888;8.942;2023-05-13T04:39:37;2266.67;;;999.90;;
5032;SDS011;2535;49.888;8.942;2023-05-13T04:42:03;2266.67;;;999.90;;
5032;SDS011;2535;49.888;8.942;2023-05-13T04:44:30;2266.67;;;999.90;;
5032;SDS011;2535;49.888;8.942;2023-05-13T04:46:57;2266.67;;;999.90;;
5032;SDS011;2535;49.888;8.942;2023-05-13T04:49:23;2266.67;;;999.90;;
5032;SDS011;2535;49.888;8.942;2023-05-13T04:51:49;2266.67;;;999.90;;
5032;SDS011;2535;49.888;8.942;2023-05-13T04:54:15;2266.67;;;999.90;;
5032;SDS011;2535;49.888;8.942;2023-05-13T04:56:40;2266.67;;;999.90;;
5032;SDS011;2535;49.888;8.942;2023-05-13T04:59:07;2266.67;;;999.90;;
5032;SDS011;2535;49.888;8.942;2023-05-13T05:01:33;2266.67;;;999.90;;
5032;SDS011;2535;49.888;8.942;2023-05-13T05:03:59;2266.67;;;999.90;;
5032;SDS011;2535;49.888;8.942;2023-05-13T05:06:26;2266.67;;;999.90;;
5032;SDS011;2535;49.888;8.942;2023-05-13T05:08:52;2266.67;;;999.90;;
5032;SDS011;2535;49.888;8.942;2023-05-13T05:11:18;2266.67;;;999.90;;
5032;SDS011;2535;49.888;8.942;2023-05-13T05:13:44;2266.67;;;999.90;;
5032;SDS011;2535;49.888;8.942;2023-05-13T05:16:09;2266.67;;;999.90;;
5032;SDS011;2535;49.888;8.942;2023-05-13T05:18:35;2266.67;;;999.90;;
5032;SDS011;2535;49.888;8.942;2023-05-13T05:21:01;2266.67;;;999.90;;
5032;SDS011;2535;49.888;8.942;2023-05-13T05:23:27;2266.67;;;999.90;;
5032;SDS011;2535;49.888;8.942;2023-05-13T05:25:53;2266.67;;;999.90;;
5032;SDS011;2535;49.888;8.942;2023-05-13T05:28:19;2266.67;;;999.90;;
5032;SDS011;2535;49.888;8.942;2023-05-13T05:30:45;2266.67;;;999.90;;
5032;SDS011;2535;49.888;8.942;2023-05-13T05:33:11;2266.67;;;999.90;;
5032;SDS011;2535;49.888;8.942;2023-05-13T05:35:37;2266.67;;;999.90;;
5032;SDS011;2535;49.888;8.942;2023-05-13T05:38:03;2266.67;;;999.90;;
5032;SDS011;2535;49.888;8.942;2023-05-13T05:40:30;2266.67;;;999.90;;
5032;SDS011;2535;49.888;8.942;2023-05-13T05:42:56;2266.67;;;999.90;;
5032;SDS011;2535;49.888;8.942;2023-05-13T05:45:22;2266.67;;;999.90;;
5032;SDS011;2535;49.888;8.942;2023-05-13T05:47:48;2266.67;;;999.90;;
5032;SDS011;2535;49.888;8.942;2023-05-13T05:50:14;2266.67;;;999.90;;
5032;SDS011;2535;49.888;8.942;2023-05-13T05:52:40;2266.67;;;999.90;;
5032;SDS011;2535;49.888;8.942;2023-05-13T05:55:06;2266.67;;;999.90;;
5032;SDS011;2535;49.888;8.942;2023-05-13T05:57:32;2266.67;;;999.90;;
5032;SDS011;2535;49.888;8.942;2023-05-13T05:59:58;2266.67;;;999.90;;
5032;SDS011;2535;49.888;8.942;2023-05-13T06:02:24;2266.67;;;999.90;;
5032;SDS011;2535;49.888;8.942;2023-05-13T06:04:50;2266.67;;;999.90;;
5032;SDS011;2535;49.888;8.942;2023-05-13T06:07:16;2266.67;;;999.90;;
5032;SDS011;2535;49.888;8.942;2023-05-13T06:09:42;2266.67;;;999.90;;
5032;SDS011;2535;49.888;8.942;2023-05-13T06:12:08;2266.67;;;999.90;;
5032;SDS011;2535;49.888;8.942;2023-05-13T06:14:34;2266.67;;;999.90;;
5032;SDS011;2535;49.888;8.942;2023-05-13T06:17:00;2266.67;;;999.90;;
5032;SDS011;2535;49.888;8.942;2023-05-13T06:19:26;2266.67;;;999.90;;
5032;SDS011;2535;49.888;8.942;2023-05-13T06:21:51;2266.67;;;999.90;;
5032;SDS011;2535;49.888;8.942;2023-05-13T06:24:17;2266.67;;;999.90;;
5032;SDS011;2535;49.888;8.942;2023-05-13T06:26:44;2266.67;;;999.90;;
5032;SDS011;2535;49.888;8.942;2023-05-13T06:29:10;2266.67;;;999.90;;
5032;SDS011;2535;49.888;8.942;2023-05-13T06:31:36;2266.67;;;999.90;;
5032;SDS011;2535;49.888;8.942;2023-05-13T06:34:01;2266.67;;;999.90;;
5032;SDS011;2535;49.888;8.942;2023-05-13T06:36:27;2266.67;;;999.90;;
5032;SDS011;2535;49.888;8.942;2023-05-13T06:38:53;2266.67;;;999.90;;
5032;SDS011;2535;49.888;8.942;2023-05-13T06:41:19;2266.67;;;999.90;;
5032;SDS011;2535;49.888;8.942;2023-05-13T06:43:45;2266.67;;;999.90;;
5032;SDS011;2535;49.888;8.942;2023-05-13T06:46:12;2266.67;;;999.90;;
5032;SDS011;2535;49.888;8.942;2023-05-13T06:48:38;2266.67;;;999.90;;
5032;SDS011;2535;49.888;8.942;2023-05-13T06:51:05;2266.67;;;999.90;;
5032;SDS011;2535;49.888;8.942;2023-05-13T06:53:31;2266.67;;;999.90;;
5032;SDS011;2535;49.888;8.942;2023-05-13T06:55:57;2266.67;;;999.90;;
5032;SDS011;2535;49.888;8.942;2023-05-13T06:58:22;2266.67;;;999.90;;
5032;SDS011;2535;49.888;8.942;2023-05-13T07:00:48;2266.67;;;999.90;;
5032;SDS011;2535;49.888;8.942;2023-05-13T07:03:14;2266.67;;;999.90;;
5032;SDS011;2535;49.888;8.942;2023-05-13T07:05:41;2266.67;;;999.90;;
5032;SDS011;2535;49.888;8.942;2023-05-13T07:08:08;2266.67;;;999.90;;
5032;SDS011;2535;49.888;8.942;2023-05-13T07:10:34;2266.67;;;999.90;;
5032;SDS011;2535;49.888;8.942;2023-05-13T07:13:00;2266.67;;;999.90;;
5032;SDS011;2535;49.888;8.942;2023-05-13T07:15:27;2266.67;;;999.90;;
5032;SDS011;2535;49.888;8.942;2023-05-13T07:17:53;2266.67;;;999.90;;
5032;SDS011;2535;49.888;8.942;2023-05-13T07:20:18;2266.67;;;999.90;;
5032;SDS011;2535;49.888;8.942;2023-05-13T07:22:48;2266.67;;;999.90;;
5032;SDS011;2535;49.888;8.942;2023-05-13T07:25:14;2266.67;;;999.90;;
5032;SDS011;2535;49.888;8.942;2023-05-13T07:27:41;2266.67;;;999.90;;
5032;SDS011;2535;49.888;8.942;2023-05-13T07:30:07;2266.67;;;999.90;;
5032;SDS011;2535;49.888;8.942;2023-05-13T07:32:33;2266.67;;;999.90;;
5032;SDS011;2535;49.888;8.942;2023-05-13T07:35:00;2266.67;;;999.90;;
5032;SDS011;2535;49.888;8.942;2023-05-13T07:37:26;2266.67;;;999.90;;
5032;SDS011;2535;49.888;8.942;2023-05-13T07:39:52;2266.67;;;999.90;;
5032;SDS011;2535;49.888;8.942;2023-05-13T07:42:18;2266.67;;;999.90;;
5032;SDS011;2535;49.888;8.942;2023-05-13T07:44:44;2266.67;;;999.90;;
5032;SDS011;2535;49.888;8.942;2023-05-13T07:47:10;2266.67;;;999.90;;
5032;SDS011;2535;49.888;8.942;2023-05-13T07:49:36;2266.67;;;999.90;;
5032;SDS011;2535;49.888;8.942;2023-05-13T07:52:02;2266.67;;;999.90;;
5032;SDS011;2535;49.888;8.942;2023-05-13T07:54:28;2266.67;;;999.90;;
5032;SDS011;2535;49.888;8.942;2023-05-13T07:56:54;1460.27;;;981.50;;
5032;SDS011;2535;49.888;8.942;2023-05-13T07:59:20;1104.83;;;989.20;;
5032;SDS011;2535;49.888;8.942;2023-05-13T08:01:46;1207.07;;;999.90;;
5032;SDS011;2535;49.888;8.942;2023-05-13T08:04:12;1214.97;;;999.90;;
5032;SDS011;2535;49.888;8.942;2023-05-13T08:06:38;1183.07;;;999.90;;
5032;SDS011;2535;49.888;8.942;2023-05-13T08:09:04;1159.77;;;999.90;;
5032;SDS011;2535;49.888;8.942;2023-05-13T08:11:30;1103.50;;;999.90;;
5032;SDS011;2535;49.888;8.942;2023-05-13T08:13:56;1036.93;;;952.90;;
5032;SDS011;2535;49.888;8.942;2023-05-13T08:16:22;1016.50;;;934.73;;
5032;SDS011;2535;49.888;8.942;2023-05-13T08:18:48;951.73;;;877.30;;
5032;SDS011;2535;49.888;8.942;2023-05-13T08:21:14;862.07;;;795.63;;
5032;SDS011;2535;49.888;8.942;2023-05-13T08:23:40;902.23;;;832.47;;
5032;SDS011;2535;49.888;8.942;2023-05-13T08:26:06;841.77;;;777.90;;
5032;SDS011;2535;49.888;8.942;2023-05-13T08:28:31;771.23;;;712.13;;
5032;SDS011;2535;49.888;8.942;2023-05-13T08:30:57;815.73;;;754.03;;
5032;SDS011;2535;49.888;8.942;2023-05-13T08:33:27;641.93;;;591.07;;
5032;SDS011;2535;49.888;8.942;2023-05-13T08:35:53;512.97;;;470.27;;
5032;SDS011;2535;49.888;8.942;2023-05-13T08:38:20;599.37;;;551.23;;
5032;SDS011;2535;49.888;8.942;2023-05-13T08:40:46;411.43;;;375.90;;
5032;SDS011;2535;49.888;8.942;2023-05-13T08:43:14;286.30;;;258.50;;
5032;SDS011;2535;49.888;8.942;2023-05-13T08:45:40;196.10;;;154.20;;
5032;SDS011;2535;49.888;8.942;2023-05-13T08:48:06;195.47;;;152.80;;
5032;SDS011;2535;49.888;8.942;2023-05-13T08:50:34;198.67;;;160.57;;
5032;SDS011;2535;49.888;8.942;2023-05-13T08:53:00;149.17;;;67.67;;
5032;SDS011;2535;49.888;8.942;2023-05-13T08:55:26;139.30;;;48.83;;
5032;SDS011;2535;49.888;8.942;2023-05-13T08:57:52;131.67;;;36.47;;
5032;SDS011;2535;49.888;8.942;2023-05-13T09:00:18;120.17;;;17.47;;
5032;SDS011;2535;49.888;8.942;2023-05-13T09:02:44;121.50;;;19.10;;
5032;SDS011;2535;49.888;8.942;2023-05-13T09:05:11;123.87;;;22.30;;
5032;SDS011;2535;49.888;8.942;2023-05-13T09:07:37;116.90;;;11.37;;
5032;SDS011;2535;49.888;8.942;2023-05-13T09:10:05;112.17;;;7.70;;
5032;SDS011;2535;49.888;8.942;2023-05-13T09:12:44;114.30;;;9.50;;
5032;SDS011;2535;49.888;8.942;2023-05-13T09:15:11;110.50;;;6.37;;
5032;SDS011;2535;49.888;8.942;2023-05-13T09:17:41;111.70;;;5.80;;
5032;SDS011;2535;49.888;8.942;2023-05-13T09:20:09;109.67;;;6.37;;
5032;SDS011;2535;49.888;8.942;2023-05-13T09:22:39;109.90;;;7.40;;
5032;SDS011;2535;49.888;8.942;2023-05-13T09:25:06;107.67;;;6.00;;
5032;SDS011;2535;49.888;8.942;2023-05-13T09:27:36;109.07;;;7.70;;
5032;SDS011;2535;49.888;8.942;2023-05-13T09:30:02;106.80;;;5.47;;
5032;SDS011;2535;49.888;8.942;2023-05-13T09:32:28;105.53;;;5.50;;
5032;SDS011;2535;49.888;8.942;2023-05-13T09:34:54;105.63;;;5.90;;
5032;SDS011;2535;49.888;8.942;2023-05-13T09:37:22;103.93;;;4.50;;
5032;SDS011;2535;49.888;8.942;2023-05-13T09:39:50;109.10;;;4.80;;
5032;SDS011;2535;49.888;8.942;2023-05-13T09:42:17;102.67;;;4.03;;
5032;SDS011;2535;49.888;8.942;2023-05-13T09:44:43;101.57;;;3.67;;
5032;SDS011;2535;49.888;8.942;2023-05-13T09:47:12;102.10;;;4.17;;
5032;SDS011;2535;49.888;8.942;2023-05-13T09:49:39;100.30;;;3.30;;
5032;SDS011;2535;49.888;8.942;2023-05-13T09:52:07;99.60;;;3.40;;
5032;SDS011;2535;49.888;8.942;2023-05-13T09:54:35;100.40;;;3.93;;
5032;SDS011;2535;49.888;8.942;2023-05-13T09:57:01;98.30;;;3.20;;
5032;SDS011;2535;49.888;8.942;2023-05-13T09:59:30;100.80;;;4.77;;
5032;SDS011;2535;49.888;8.942;2023-05-13T10:01:56;100.17;;;4.20;;
5032;SDS011;2535;49.888;8.942;2023-05-13T10:04:24;98.07;;;3.20;;
5032;SDS011;2535;49.888;8.942;2023-05-13T10:06:50;97.73;;;3.30;;
5032;SDS011;2535;49.888;8.942;2023-05-13T10:09:16;97.17;;;3.10;;
5032;SDS011;2535;49.888;8.942;2023-05-13T10:11:42;96.57;;;3.70;;
5032;SDS011;2535;49.888;8.942;2023-05-13T10:14:11;99.87;;;3.60;;
5032;SDS011;2535;49.888;8.942;2023-05-13T10:16:37;96.47;;;3.30;;
5032;SDS011;2535;49.888;8.942;2023-05-13T10:19:04;94.20;;;2.63;;
5032;SDS011;2535;49.888;8.942;2023-05-13T10:21:30;94.87;;;2.70;;
5032;SDS011;2535;49.888;8.942;2023-05-13T10:23:56;95.70;;;2.90;;
5032;SDS011;2535;49.888;8.942;2023-05-13T10:26:23;94.90;;;3.07;;
5032;SDS011;2535;49.888;8.942;2023-05-13T10:28:49;95.27;;;2.67;;
5032;SDS011;2535;49.888;8.942;2023-05-13T10:31:15;93.40;;;2.87;;
5032;SDS011;2535;49.888;8.942;2023-05-13T10:33:41;93.87;;;2.87;;
5032;SDS011;2535;49.888;8.942;2023-05-13T10:41:46;91.60;;;2.10;;
5032;SDS011;2535;49.888;8.942;2023-05-13T10:44:19;91.30;;;2.63;;
5032;SDS011;2535;49.888;8.942;2023-05-13T10:46:48;91.00;;;2.23;;
5032;SDS011;2535;49.888;8.942;2023-05-13T10:49:14;93.80;;;3.00;;
5032;SDS011;2535;49.888;8.942;2023-05-13T10:51:43;90.97;;;2.60;;
5032;SDS011;2535;49.888;8.942;2023-05-13T10:54:20;90.97;;;2.70;;
5032;SDS011;2535;49.888;8.942;2023-05-13T10:56:54;93.80;;;2.70;;
5032;SDS011;2535;49.888;8.942;2023-05-13T10:59:21;89.47;;;2.20;;
5032;SDS011;2535;49.888;8.942;2023-05-13T11:01:47;90.53;;;2.77;;
5032;SDS011;2535;49.888;8.942;2023-05-13T11:04:17;89.50;;;2.60;;
5032;SDS011;2535;49.888;8.942;2023-05-13T11:06:44;90.80;;;2.67;;
5032;SDS011;2535;49.888;8.942;2023-05-13T11:09:11;89.27;;;3.03;;
5032;SDS011;2535;49.888;8.942;2023-05-13T11:11:37;89.40;;;2.80;;
5032;SDS011;2535;49.888;8.942;2023-05-13T11:16:29;87.17;;;1.80;;
5032;SDS011;2535;49.888;8.942;2023-05-13T11:18:55;87.40;;;1.73;;
5032;SDS011;2535;49.888;8.942;2023-05-13T11:21:28;89.43;;;2.10;;
5032;SDS011;2535;49.888;8.942;2023-05-13T11:24:00;86.10;;;2.07;;
5032;SDS011;2535;49.888;8.942;2023-05-13T11:26:40;87.63;;;2.40;;
5032;SDS011;2535;49.888;8.942;2023-05-13T11:29:07;86.63;;;2.20;;
5032;SDS011;2535;49.888;8.942;2023-05-13T11:31:43;86.67;;;2.00;;
5032;SDS011;2535;49.888;8.942;2023-05-13T11:34:13;86.47;;;2.37;;
5032;SDS011;2535;49.888;8.942;2023-05-13T11:36:41;85.73;;;1.90;;
5032;SDS011;2535;49.888;8.942;2023-05-13T11:39:14;86.30;;;2.23;;
5032;SDS011;2535;49.888;8.942;2023-05-13T11:41:59;86.40;;;2.30;;
5032;SDS011;2535;49.888;8.942;2023-05-13T11:44:25;85.83;;;1.90;;
5032;SDS011;2535;49.888;8.942;2023-05-13T11:46:55;87.30;;;2.20;;
5032;SDS011;2535;49.888;8.942;2023-05-13T11:52:04;85.10;;;1.87;;
5032;SDS011;2535;49.888;8.942;2023-05-13T11:54:30;85.57;;;2.00;;
5032;SDS011;2535;49.888;8.942;2023-05-13T11:56:56;86.90;;;2.30;;
5032;SDS011;2535;49.888;8.942;2023-05-13T11:59:22;87.73;;;2.27;;
5032;SDS011;2535;49.888;8.942;2023-05-13T12:02:01;85.97;;;2.60;;
5032;SDS011;2535;49.888;8.942;2023-05-13T12:04:27;86.67;;;1.80;;
5032;SDS011;2535;49.888;8.942;2023-05-13T12:06:53;87.30;;;1.73;;
5032;SDS011;2535;49.888;8.942;2023-05-13T12:09:21;88.70;;;2.73;;
5032;SDS011;2535;49.888;8.942;2023-05-13T12:11:47;88.40;;;2.10;;
5032;SDS011;2535;49.888;8.942;2023-05-13T12:14:13;89.70;;;2.90;;
5032;SDS011;2535;49.888;8.942;2023-05-13T12:16:39;88.57;;;2.33;;
5032;SDS011;2535;49.888;8.942;2023-05-13T12:19:06;89.00;;;1.93;;
5032;SDS011;2535;49.888;8.942;2023-05-13T12:21:32;88.70;;;2.47;;
5032;SDS011;2535;49.888;8.942;2023-05-13T12:23:58;88.90;;;2.30;;
5032;SDS011;2535;49.888;8.942;2023-05-13T12:26:24;87.67;;;2.07;;
5032;SDS011;2535;49.888;8.942;2023-05-13T12:28:57;88.60;;;3.07;;
5032;SDS011;2535;49.888;8.942;2023-05-13T12:31:23;86.83;;;2.27;;
5032;SDS011;2535;49.888;8.942;2023-05-13T12:33:49;85.93;;;2.10;;
5032;SDS011;2535;49.888;8.942;2023-05-13T12:36:19;87.57;;;2.67;;
5032;SDS011;2535;49.888;8.942;2023-05-13T12:39:08;85.87;;;2.23;;
5032;SDS011;2535;49.888;8.942;2023-05-13T12:41:35;85.70;;;1.90;;
5032;SDS011;2535;49.888;8.942;2023-05-13T12:44:02;85.37;;;1.90;;
5032;SDS011;2535;49.888;8.942;2023-05-13T12:46:29;85.70;;;2.10;;
5032;SDS011;2535;49.888;8.942;2023-05-13T12:48:55;86.47;;;1.90;;
5032;SDS011;2535;49.888;8.942;2023-05-13T12:51:22;85.20;;;2.30;;
5032;SDS011;2535;49.888;8.942;2023-05-13T12:53:48;85.60;;;2.33;;
5032;SDS011;2535;49.888;8.942;2023-05-13T12:56:14;86.40;;;2.10;;
5032;SDS011;2535;49.888;8.942;2023-05-13T12:58:40;87.07;;;2.23;;
5032;SDS011;2535;49.888;8.942;2023-05-13T13:01:06;89.50;;;2.20;;
5032;SDS011;2535;49.888;8.942;2023-05-13T13:03:32;91.80;;;3.07;;
5032;SDS011;2535;49.888;8.942;2023-05-13T13:05:58;92.20;;;2.50;;
5032;SDS011;2535;49.888;8.942;2023-05-13T13:08:24;94.20;;;3.57;;
5032;SDS011;2535;49.888;8.942;2023-05-13T13:10:51;94.27;;;2.87;;
5032;SDS011;2535;49.888;8.942;2023-05-13T13:13:17;95.57;;;3.50;;
5032;SDS011;2535;49.888;8.942;2023-05-13T13:15:43;95.50;;;3.00;;
5032;SDS011;2535;49.888;8.942;2023-05-13T13:18:08;97.00;;;3.50;;
5032;SDS011;2535;49.888;8.942;2023-05-13T13:20:34;95.80;;;3.00;;
5032;SDS011;2535;49.888;8.942;2023-05-13T13:23:01;95.90;;;3.40;;
5032;SDS011;2535;49.888;8.942;2023-05-13T13:25:27;95.80;;;3.10;;
5032;SDS011;2535;49.888;8.942;2023-05-13T13:27:53;95.90;;;3.30;;
5032;SDS011;2535;49.888;8.942;2023-05-13T13:30:19;98.87;;;3.33;;
5032;SDS011;2535;49.888;8.942;2023-05-13T13:32:45;95.20;;;2.80;;
5032;SDS011;2535;49.888;8.942;2023-05-13T13:35:11;94.80;;;3.20;;
5032;SDS011;2535;49.888;8.942;2023-05-13T13:37:37;96.17;;;3.73;;
5032;SDS011;2535;49.888;8.942;2023-05-13T13:40:03;95.70;;;3.00;;
5032;SDS011;2535;49.888;8.942;2023-05-13T13:42:29;95.40;;;3.00;;
5032;SDS011;2535;49.888;8.942;2023-05-13T13:44:55;93.17;;;2.70;;
5032;SDS011;2535;49.888;8.942;2023-05-13T13:47:21;94.23;;;2.67;;
5032;SDS011;2535;49.888;8.942;2023-05-13T13:49:47;93.50;;;2.63;;
5032;SDS011;2535;49.888;8.942;2023-05-13T13:52:13;93.07;;;2.60;;
5032;SDS011;2535;49.888;8.942;2023-05-13T13:54:39;92.20;;;2.37;;
5032;SDS011;2535;49.888;8.942;2023-05-13T13:57:05;94.90;;;2.53;;
5032;SDS011;2535;49.888;8.942;2023-05-13T13:59:31;91.63;;;2.73;;
5032;SDS011;2535;49.888;8.942;2023-05-13T14:01:57;90.07;;;1.93;;
5032;SDS011;2535;49.888;8.942;2023-05-13T14:04:23;90.27;;;2.10;;
5032;SDS011;2535;49.888;8.942;2023-05-13T14:06:51;88.10;;;2.33;;
5032;SDS011;2535;49.888;8.942;2023-05-13T14:09:17;88.60;;;2.57;;
5032;SDS011;2535;49.888;8.942;2023-05-13T14:11:43;87.87;;;1.90;;
5032;SDS011;2535;49.888;8.942;2023-05-13T14:14:09;88.80;;;2.17;;
5032;SDS011;2535;49.888;8.942;2023-05-13T14:16:35;86.50;;;2.00;;
5032;SDS011;2535;49.888;8.942;2023-05-13T14:19:01;85.70;;;2.03;;
5032;SDS011;2535;49.888;8.942;2023-05-13T14:21:27;86.97;;;2.70;;
5032;SDS011;2535;49.888;8.942;2023-05-13T14:23:53;86.40;;;2.00;;
5032;SDS011;2535;49.888;8.942;2023-05-13T14:26:19;85.87;;;2.10;;
5032;SDS011;2535;49.888;8.942;2023-05-13T14:28:45;85.17;;;1.80;;
5032;SDS011;2535;49.888;8.942;2023-05-13T14:31:11;86.10;;;1.90;;
5032;SDS011;2535;49.888;8.942;2023-05-13T14:33:37;86.20;;;2.30;;
5032;SDS011;2535;49.888;8.942;2023-05-13T14:36:04;85.87;;;1.90;;
5032;SDS011;2535;49.888;8.942;2023-05-13T14:38:30;86.33;;;1.93;;
5032;SDS011;2535;49.888;8.942;2023-05-13T14:40:56;86.70;;;2.33;;